KTBR

Statesboro-Bulloch County Airport

Statesboro, Georgia, USA
METAR KTBR 160155Z AUTO 28003KT 10SM CLR 10/10 A3003 RMK AO2 T01000096
Observed Flight Rules
Dec-16 @ 01:55 UTC (38 minutes ago) Visual Flight Rules
Wind Visibility Clouds
280° at 3 knots 10 miles
  • Clear skies
Temperatures Readings
Current 10°C / 50°F
Dewpoint 10°C / 50°F
Humidity 100%
Altimeter 30.03" Hg
Pressure 1017 hPa
Elevation 57
METAR KTBR 160155Z AUTO 28003KT 10SM CLR 10/10 A3003 RMK AO2 T01000096
Observed Flight Rules
Dec-16 @ 01:55 UTC
(38 minutes ago)
VFR
Wind Visibility
280° at 3 knots 10 miles
Clouds
  • Clear skies
Temperature Dewpoint
10°C / 50°F 10°C / 50°F
Humidity Altimeter Pressure
100% 30.03" Hg 1017 hPa